Latest Weather Observations for Gladstone Airport

IDQ60801

Issued at 7:35 am EST Tuesday 2 September 2014 (issued every 30 minutes, with the page automatically refreshed every 10 minutes)

About weather observations | Map of weather stations | Latest weather observations for QLD | Other Formats
Station Details ID: 039326 Name: GLADSTONE AIRPORT Lat: -23.87 Lon: 151.22 Height: 16.6 m
Data from the previous 72 hours. | See also: Recent months at Gladstone Airport
Date/Time
EST
Temp
°C
App
Temp
°C
Dew
Point
Rel
Hum
%
Delta-T
°C
Wind Press
QNH
hPa
Press
MSL
hPa
Rain
since 9 am
mm
Dir
 
Spd
km/h
Gust
km/h
Spd
kts
Gust
kts
02/07:30am 16.4 17.2 12.6 78 2.1 WSW 0 0 0 0 1017.2 1017.2 0.0
02/07:00am 14.3 13.7 11.8 85 1.3 SSW 6 11 3 6 1017.0 1017.0 0.0
02/06:30am 13.1 12.4 11.3 89 1.0 SW 6 9 3 5 1017.2 1017.2 0.0
02/06:00am 12.7 11.7 11.1 90 0.8 SSW 7 9 4 5 1017.1 1017.1 0.0
02/05:30am 12.3 12.4 10.2 87 1.1 CALM 0 0 0 0 1017.0 1017.0 0.0
02/05:00am 12.6 11.6 11.0 90 0.8 SW 7 11 4 6 1016.9 1016.9 0.0
02/04:30am 12.6 12.8 10.7 88 1.0 CALM 0 0 0 0 1016.6 1016.6 0.0
02/04:00am 12.7 12.9 10.6 87 1.1 SSW 0 0 0 0 1016.5 1016.5 0.0
02/03:30am 13.1 13.1 11.2 88 1.0 SSW 2 7 1 4 1016.6 1016.6 0.0
02/03:00am 13.6 14.1 11.7 88 1.0 CALM 0 0 0 0 1017.0 1017.0 0.0
02/02:30am 13.6 14.1 11.5 87 1.1 SW 0 0 0 0 1017.0 1017.0 0.0
02/02:00am 13.7 13.7 11.2 85 1.3 SW 2 6 1 3 1017.3 1017.3 0.0
02/01:30am 14.0 14.5 11.7 86 1.2 CALM 0 0 0 0 1017.2 1017.2 0.0
02/01:00am 14.4 14.9 11.7 84 1.4 CALM 0 0 0 0 1017.8 1017.8 0.0
02/12:30am 14.8 14.8 12.3 85 1.4 SSW 4 7 2 4 1017.8 1017.8 0.0
02/12:00am 14.9 15.6 12.2 84 1.5 S 0 0 0 0 1017.9 1017.9 0.0
 
Date/Time
EST
Temp
°C
App
Temp
°C
Dew
Point
Rel
Hum
%
Delta-T
°C
Wind Press
QNH
hPa
Press
MSL
hPa
Rain
since 9 am
mm
Dir
 
Spd
km/h
Gust
km/h
Spd
kts
Gust
kts
01/11:30pm 15.2 15.1 12.1 82 1.7 S 4 9 2 5 1018.0 1018.0 0.0
01/11:00pm 15.3 15.9 11.9 80 1.8 CALM 0 0 0 0 1018.3 1018.3 0.0
01/10:30pm 15.5 16.1 11.9 79 2.0 CALM 0 0 0 0 1018.4 1018.4 0.0
01/10:00pm 15.9 16.6 12.3 79 2.0 CALM 0 0 0 0 1018.0 1018.0 0.0
01/09:30pm 16.4 17.2 12.4 77 2.2 CALM 0 0 0 0 1018.4 1018.4 0.0
01/09:00pm 17.0 17.7 12.3 74 2.6 CALM 0 0 0 0 1018.5 1018.5 0.0
01/08:30pm 18.3 19.2 13.0 71 3.0 CALM 0 0 0 0 1018.3 1018.3 0.0
01/08:00pm 19.1 18.8 13.3 69 3.3 N 7 9 4 5 1017.8 1017.8 0.0
01/07:30pm 19.5 19.0 13.7 69 3.3 N 9 13 5 7 1018.3 1018.3 0.0
01/07:00pm 19.7 19.4 13.2 66 3.7 N 7 11 4 6 1017.8 1017.8 0.0
01/06:30pm 20.5 18.4 11.2 55 5.1 NNE 13 20 7 11 1017.2 1017.2 0.0
01/06:00pm 21.5 18.0 7.3 40 7.3 NNE 15 20 8 11 1017.1 1017.1 0.0
01/05:30pm 22.5 17.6 4.1 30 9.0 NNE 19 26 10 14 1016.6 1016.6 0.0
01/05:00pm 23.1 18.1 3.6 28 9.5 NNE 19 28 10 15 1016.7 1016.7 0.0
01/04:30pm 23.6 18.5 4.0 28 9.6 NNE 20 28 11 15 1016.6 1016.6 0.0
01/04:00pm 24.1 19.2 5.0 29 9.6 NE 20 26 11 14 1016.3 1016.3 0.0
01/03:30pm 24.3 19.1 3.6 26 10.1 NNE 20 26 11 14 1016.4 1016.4 0.0
01/03:00pm 24.3 19.1 3.6 26 10.1 NNE 20 26 11 14 1016.4 1016.4 0.0
01/02:30pm 24.4 19.5 4.2 27 10.0 NNE 19 26 10 14 1016.7 1016.7 0.0
01/02:00pm 25.0 20.4 5.7 29 9.8 NNE 19 24 10 13 1016.8 1016.8 0.0
01/01:30pm 25.3 20.7 5.5 28 10.1 NE 19 28 10 15 1017.0 1017.0 0.0
01/01:00pm 25.5 21.0 4.0 25 10.7 ENE 17 22 9 12 1017.8 1017.8 0.0
01/12:30pm 25.0 21.0 4.7 27 10.2 ENE 15 22 8 12 1018.5 1018.5 0.0
01/12:00pm 25.1 20.8 5.3 28 10.0 N 17 22 9 12 1019.1 1019.1 0.0
01/11:30am 25.1 22.5 9.4 37 8.6 ENE 13 20 7 11 1018.7 1018.7 0.0
01/11:00am 23.6 22.0 11.6 47 6.7 N 11 17 6 9 1018.8 1018.8 0.0
01/10:30am 23.1 21.8 11.2 47 6.6 NNW 9 17 5 9 1019.6 1019.6 0.0
01/10:00am 22.3 21.6 12.0 52 5.8 NW 7 15 4 8 1020.0 1020.0 0.0
01/09:30am 20.8 20.2 13.5 63 4.2 SW 9 15 5 8 1020.4 1020.4 0.0
01/09:00am 19.6 18.8 14.0 70 3.2 SW 11 17 6 9 1020.6 1020.6 0.0
01/08:30am 17.8 17.1 13.3 75 2.5 SSW 9 13 5 7 1020.4 1020.4 0.0
01/08:00am 15.2 13.3 11.8 80 1.8 SW 13 17 7 9 1020.3 1020.3 0.0
01/07:30am 13.3 11.0 10.5 83 1.5 SW 13 19 7 10 1019.7 1019.7 0.0
01/07:00am 12.5 10.6 10.4 87 1.1 SW 11 17 6 9 1019.4 1019.4 0.0
01/06:30am 11.8 10.8 10.2 90 0.8 SW 6 9 3 5 1018.8 1018.8 0.0
01/06:00am 11.5 9.9 10.1 91 0.7 SSW 9 13 5 7 1018.6 1018.6 0.0
01/05:30am 11.5 9.9 10.1 91 0.7 SW 9 11 5 6 1018.4 1018.4 0.0
01/05:00am 11.7 10.6 10.1 90 0.8 S 6 11 3 6 1018.3 1018.3 0.0
01/04:30am 11.8 9.7 9.9 88 1.0 SW 11 17 6 9 1018.2 1018.2 0.0
01/04:00am 12.6 11.5 10.7 88 1.0 SW 7 11 4 6 1018.1 1018.1 0.0
01/03:30am 13.1 11.5 11.5 90 0.8 SW 11 15 6 8 1018.1 1018.1 0.0
01/03:00am 12.9 11.4 10.6 86 1.2 SSW 9 13 5 7 1018.1 1018.1 0.0
01/02:30am 13.4 12.2 11.5 88 1.0 SSW 9 15 5 8 1018.3 1018.3 0.0
01/02:00am 13.7 12.3 12.3 91 0.8 SSW 11 15 6 8 1018.4 1018.4 0.0
01/01:30am 13.5 12.9 11.7 89 1.0 S 6 9 3 5 1018.5 1018.5 0.0
01/01:00am 13.4 12.5 11.3 87 1.1 SSW 7 11 4 6 1018.7 1018.7 0.0
01/12:30am 14.5 14.1 12.5 88 1.1 SSW 6 9 3 5 1018.7 1018.7 0.0
01/12:00am 14.5 14.8 12.2 86 1.2 SSW 2 6 1 3 1018.9 1018.9 0.0
 
Date/Time
EST
Temp
°C
App
Temp
°C
Dew
Point
Rel
Hum
%
Delta-T
°C
Wind Press
QNH
hPa
Press
MSL
hPa
Rain
since 9 am
mm
Dir
 
Spd
km/h
Gust
km/h
Spd
kts
Gust
kts
31/11:30pm 14.7 15.0 12.2 85 1.4 SSW 2 6 1 3 1018.9 1018.9 0.0
31/11:00pm 14.8 15.4 11.9 83 1.6 CALM 0 7 0 4 1019.0 1019.0 0.0
31/10:30pm 15.2 15.9 12.3 83 1.6 CALM 0 0 0 0 1019.1 1019.1 0.0
31/10:00pm 15.6 15.8 12.0 79 2.0 ESE 2 9 1 5 1019.0 1019.0 0.0
31/09:30pm 16.0 16.8 12.6 80 1.9 CALM 0 0 0 0 1018.9 1018.9 0.0
31/09:00pm 16.5 17.2 12.3 76 2.3 CALM 0 0 0 0 1018.8 1018.8 0.0
31/08:30pm 17.4 17.5 12.7 74 2.6 E 4 6 2 3 1018.6 1018.6 0.0
31/08:00pm 18.7 18.9 14.2 75 2.6 N 6 7 3 4 1018.3 1018.3 0.0
31/07:30pm 18.9 18.8 14.0 73 2.8 NNE 7 11 4 6 1017.8 1017.8 0.0
31/07:00pm 19.2 18.7 12.7 66 3.6 N 7 11 4 6 1017.2 1017.2 0.0
31/06:30pm 19.7 18.8 12.7 64 3.9 N 9 15 5 8 1016.8 1016.8 0.0
31/06:00pm 20.2 18.6 11.4 57 4.8 NNE 11 15 6 8 1016.5 1016.5 0.0
31/05:30pm 20.9 18.4 9.8 49 6.0 NE 13 19 7 10 1016.1 1016.1 0.0
31/05:00pm 22.0 17.9 7.8 40 7.4 ENE 19 22 10 12 1015.7 1015.7 0.0
31/04:30pm 23.5 18.3 -0.1 21 10.7 NE 17 22 9 12 1015.4 1015.4 0.0
31/04:00pm 24.3 18.6 -0.8 19 11.3 NE 19 24 10 13 1015.1 1015.1 0.0
31/03:30pm 24.2 18.4 -1.6 18 11.4 NNE 19 24 10 13 1015.1 1015.1 0.0
31/03:00pm 23.7 18.1 1.4 23 10.4 NE 20 28 11 15 1015.2 1015.2 0.0
31/02:30pm 23.3 18.0 5.2 31 9.1 NE 22 28 12 15 1015.4 1015.4 0.0
31/02:00pm 23.8 19.3 7.0 34 8.7 NE 20 28 11 15 1015.7 1015.7 0.0
31/01:30pm 24.0 19.6 8.8 38 8.2 NE 22 28 12 15 1015.9 1015.9 0.0
31/01:00pm 24.5 19.4 0.8 21 11.0 ENE 17 24 9 13 1016.5 1016.5 0.0
31/12:30pm 25.4 21.3 0.1 19 11.7 SW 11 17 6 9 1016.9 1016.9 0.0
31/12:00pm 25.3 21.2 0.0 19 11.6 WSW 11 19 6 10 1017.3 1017.3 0.0
31/11:30am 24.2 21.2 1.8 23 10.6 N 7 11 4 6 1017.8 1017.8 0.0
31/11:00am 23.6 21.5 6.8 34 8.7 WNW 7 9 4 5 1018.4 1018.4 0.0
31/10:30am 21.9 20.4 9.1 44 6.8 WSW 7 13 4 7 1018.8 1018.8 0.0
31/10:00am 20.7 19.0 11.3 55 5.2 SSW 11 17 6 9 1019.2 1019.2 0.0
31/09:30am 18.9 17.6 12.6 67 3.5 SW 11 17 6 9 1019.4 1019.4 0.0
31/09:00am 17.2 15.7 11.9 71 2.9 SW 11 15 6 8 1019.6 1019.6 0.0
31/08:30am 15.6 13.9 11.2 75 2.4 SW 11 17 6 9 1019.8 1019.8 0.0
31/08:00am 14.1 11.9 10.9 81 1.7 SW 13 17 7 9 1019.6 1019.6 0.0
31/07:30am 12.8 10.8 10.0 83 1.4 SW 11 17 6 9 1019.3 1019.3 0.0
31/07:00am 11.9 9.7 9.5 85 1.2 SW 11 17 6 9 1019.1 1019.1 0.0
31/06:30am 11.6 10.0 10.2 91 0.7 SW 9 15 5 8 1018.6 1018.6 0.0
31/06:00am 11.5 9.9 10.1 91 0.7 SW 9 15 5 8 1018.4 1018.4 0.0
31/05:30am 11.5 10.3 10.2 92 0.7 SSW 7 13 4 7 1018.1 1018.1 0.0
31/05:00am 12.0 10.9 10.6 91 0.7 SW 7 11 4 6 1017.8 1017.8 0.0
31/04:30am 12.1 10.6 10.7 91 0.7 SSW 9 15 5 8 1017.8 1017.8 0.0
31/04:00am 12.3 10.9 10.9 91 0.7 SW 9 13 5 7 1017.9 1017.9 0.0
31/03:30am 12.6 10.9 11.3 92 0.7 SSW 11 15 6 8 1017.8 1017.8 0.0
31/03:00am 12.8 11.2 11.4 91 0.7 SW 11 13 6 7 1017.8 1017.8 0.0
31/02:30am 13.2 12.0 11.6 90 0.9 SSW 9 13 5 7 1017.9 1017.9 0.0
31/02:00am 13.5 12.0 11.9 90 0.9 SSW 11 13 6 7 1018.1 1018.1 0.0
31/01:30am 13.9 13.4 12.5 91 0.8 SW 7 11 4 6 1018.3 1018.3 0.0
31/01:00am 13.6 12.8 11.7 88 1.0 SSW 7 9 4 5 1018.6 1018.6 0.0
31/12:30am 14.1 14.7 12.0 87 1.1 CALM 0 0 0 0 1018.7 1018.7 0.0
31/12:00am 14.5 14.1 12.5 88 1.1 SSW 6 7 3 4 1018.9 1018.9 0.0
 
Date/Time
EST
Temp
°C
App
Temp
°C
Dew
Point
Rel
Hum
%
Delta-T
°C
Wind Press
QNH
hPa
Press
MSL
hPa
Rain
since 9 am
mm
Dir
 
Spd
km/h
Gust
km/h
Spd
kts
Gust
kts
30/11:30pm 14.6 14.2 12.3 86 1.3 N 6 9 3 5 1018.9 1018.9 0.0
30/11:00pm 14.7 15.3 12.0 84 1.5 CALM 0 0 0 0 1018.9 1018.9 0.0
30/10:30pm 15.1 15.8 12.1 82 1.6 CALM 0 0 0 0 1018.9 1018.9 0.0
30/10:00pm 15.7 16.4 12.3 80 1.9 CALM 0 0 0 0 1018.9 1018.9 0.0
30/09:30pm 16.5 17.0 12.7 78 2.1 N 2 7 1 4 1019.0 1019.0 0.0
30/09:00pm 17.8 17.7 13.3 75 2.5 N 6 6 3 3 1019.0 1019.0 0.0
30/08:30pm 18.5 18.3 13.6 73 2.8 N 7 11 4 6 1018.9 1018.9 0.0
30/08:00pm 18.6 18.0 13.5 72 2.9 N 9 13 5 7 1018.6 1018.6 0.0
30/07:30pm 18.8 18.2 13.4 71 3.1 N 9 13 5 7 1018.3 1018.3 0.0
30/07:00pm 19.2 18.6 13.4 69 3.3 NE 9 11 5 6 1017.8 1017.8 0.0
30/06:30pm 19.5 18.5 12.3 63 4.0 N 9 13 5 7 1017.0 1017.0 0.0
30/06:00pm 20.0 18.8 11.7 59 4.6 N 9 13 5 7 1016.6 1016.6 0.0
30/05:30pm 20.8 18.8 11.4 55 5.2 N 13 17 7 9 1016.4 1016.4 0.0
30/05:00pm 20.8 18.4 12.8 60 4.5 NE 17 20 9 11 1016.2 1016.2 0.0
30/04:30pm 21.6 18.7 12.2 55 5.3 ENE 19 24 10 13 1016.0 1016.0 0.0
30/04:00pm 22.2 19.2 11.9 52 5.8 ENE 19 24 10 13 1015.8 1015.8 0.0
30/03:30pm 22.5 19.5 12.7 54 5.6 ENE 20 26 11 14 1015.6 1015.6 0.0
30/03:00pm 23.0 20.2 13.2 54 5.7 ENE 20 26 11 14 1015.8 1015.8 0.0
30/02:30pm 23.7 20.7 12.4 49 6.5 ENE 20 30 11 16 1015.9 1015.9 0.0
30/02:00pm 25.4 21.2 1.5 21 11.3 WSW 13 37 7 20 1016.3 1016.3 0.0
30/01:30pm 24.8 21.9 4.5 27 10.1 WSW 9 24 5 13 1016.8 1016.8 0.0
30/01:00pm 24.5 21.2 4.8 28 9.9 WNW 11 19 6 10 1017.4 1017.4 0.0
30/12:30pm 24.4 20.6 3.7 26 10.2 W 13 20 7 11 1018.2 1018.2 0.0
30/12:00pm 22.9 20.8 6.6 35 8.3 WNW 7 17 4 9 1018.8 1018.8 0.0
30/11:30am 22.8 20.4 7.0 36 8.2 SSW 9 17 5 9 1019.5 1019.5 0.0
30/11:00am 22.4 20.2 6.2 35 8.2 W 7 13 4 7 1019.9 1019.9 0.0
30/10:30am 21.6 19.9 8.5 43 6.9 W 7 13 4 7 1020.4 1020.4 0.0
30/10:00am 21.1 19.4 10.0 49 6.0 WSW 9 17 5 9 1020.8 1020.8 0.0
30/09:30am 19.4 17.6 10.7 57 4.7 SW 11 19 6 10 1021.0 1021.0 0.0
30/09:00am 18.2 16.1 11.3 64 3.7 SW 13 20 7 11 1021.2 1021.2 0.0
30/08:30am 16.6 14.7 11.9 74 2.6 SW 13 20 7 11 1021.2 1021.2 0.0
30/08:00am 14.8 12.8 11.4 80 1.8 SSW 13 20 7 11 1021.2 1021.2 0.0

Other Formats:

Comma delimited format used in spreadsheet applications
http://www.bom.gov.au/fwo/IDQ60801/IDQ60801.94381.axf

JavaScript Object Notation format (JSON) in row-major order
http://www.bom.gov.au/fwo/IDQ60801/IDQ60801.94381.json